sensor_id;sensor_type;location;lat;lon;timestamp;P1;durP1;ratioP1;P2;durP2;ratioP2
62848;SDS011;48941;49.516;8.286;2022-09-25T00:02:21;11.88;;;7.75;;
62848;SDS011;48941;49.516;8.286;2022-09-25T00:04:48;13.13;;;8.23;;
62848;SDS011;48941;49.516;8.286;2022-09-25T00:07:17;10.45;;;7.90;;
62848;SDS011;48941;49.516;8.286;2022-09-25T00:09:45;12.07;;;7.95;;
62848;SDS011;48941;49.516;8.286;2022-09-25T00:12:13;12.82;;;8.40;;
62848;SDS011;48941;49.516;8.286;2022-09-25T00:14:40;9.63;;;7.90;;
62848;SDS011;48941;49.516;8.286;2022-09-25T00:17:08;12.80;;;8.20;;
62848;SDS011;48941;49.516;8.286;2022-09-25T00:19:36;10.02;;;7.93;;
62848;SDS011;48941;49.516;8.286;2022-09-25T00:22:15;11.38;;;8.35;;
62848;SDS011;48941;49.516;8.286;2022-09-25T00:24:44;12.30;;;9.32;;
62848;SDS011;48941;49.516;8.286;2022-09-25T00:27:25;16.25;;;9.23;;
62848;SDS011;48941;49.516;8.286;2022-09-25T00:30:08;13.38;;;9.57;;
62848;SDS011;48941;49.516;8.286;2022-09-25T00:32:38;14.23;;;9.25;;
62848;SDS011;48941;49.516;8.286;2022-09-25T00:35:07;14.32;;;9.38;;
62848;SDS011;48941;49.516;8.286;2022-09-25T00:37:35;14.77;;;9.02;;
62848;SDS011;48941;49.516;8.286;2022-09-25T00:40:03;11.45;;;8.43;;
62848;SDS011;48941;49.516;8.286;2022-09-25T00:42:32;12.95;;;8.48;;
62848;SDS011;48941;49.516;8.286;2022-09-25T00:45:02;14.27;;;8.88;;
62848;SDS011;48941;49.516;8.286;2022-09-25T00:47:36;12.40;;;8.50;;
62848;SDS011;48941;49.516;8.286;2022-09-25T00:50:12;10.55;;;8.65;;
62848;SDS011;48941;49.516;8.286;2022-09-25T00:52:48;11.02;;;8.63;;
62848;SDS011;48941;49.516;8.286;2022-09-25T00:55:19;13.73;;;9.30;;
62848;SDS011;48941;49.516;8.286;2022-09-25T00:57:49;14.38;;;9.75;;
62848;SDS011;48941;49.516;8.286;2022-09-25T01:00:22;16.55;;;10.02;;
62848;SDS011;48941;49.516;8.286;2022-09-25T01:02:56;16.15;;;9.90;;
62848;SDS011;48941;49.516;8.286;2022-09-25T01:05:25;14.48;;;9.73;;
62848;SDS011;48941;49.516;8.286;2022-09-25T01:07:55;12.77;;;10.07;;
62848;SDS011;48941;49.516;8.286;2022-09-25T01:10:28;15.63;;;9.55;;
62848;SDS011;48941;49.516;8.286;2022-09-25T01:12:56;14.85;;;9.50;;
62848;SDS011;48941;49.516;8.286;2022-09-25T01:15:28;12.43;;;9.35;;
62848;SDS011;48941;49.516;8.286;2022-09-25T01:18:19;12.80;;;9.95;;
62848;SDS011;48941;49.516;8.286;2022-09-25T01:26:54;12.00;;;9.07;;
62848;SDS011;48941;49.516;8.286;2022-09-25T01:29:49;12.05;;;9.18;;
62848;SDS011;48941;49.516;8.286;2022-09-25T01:32:21;13.13;;;9.63;;
62848;SDS011;48941;49.516;8.286;2022-09-25T01:34:57;11.68;;;9.23;;
62848;SDS011;48941;49.516;8.286;2022-09-25T01:37:44;12.90;;;8.60;;
62848;SDS011;48941;49.516;8.286;2022-09-25T01:40:20;13.45;;;9.07;;
62848;SDS011;48941;49.516;8.286;2022-09-25T01:42:53;13.38;;;8.38;;
62848;SDS011;48941;49.516;8.286;2022-09-25T01:45:28;12.65;;;9.00;;
62848;SDS011;48941;49.516;8.286;2022-09-25T01:48:01;12.25;;;8.43;;
62848;SDS011;48941;49.516;8.286;2022-09-25T01:50:47;12.55;;;7.95;;
62848;SDS011;48941;49.516;8.286;2022-09-25T01:53:19;10.85;;;7.72;;
62848;SDS011;48941;49.516;8.286;2022-09-25T01:55:53;10.35;;;7.90;;
62848;SDS011;48941;49.516;8.286;2022-09-25T01:58:26;15.18;;;8.00;;
62848;SDS011;48941;49.516;8.286;2022-09-25T02:01:00;8.52;;;6.93;;
62848;SDS011;48941;49.516;8.286;2022-09-25T02:03:33;8.55;;;6.20;;
62848;SDS011;48941;49.516;8.286;2022-09-25T02:06:05;7.40;;;5.65;;
62848;SDS011;48941;49.516;8.286;2022-09-25T02:09:05;6.25;;;4.85;;
62848;SDS011;48941;49.516;8.286;2022-09-25T02:11:36;7.78;;;4.88;;
62848;SDS011;48941;49.516;8.286;2022-09-25T02:16:42;8.13;;;4.45;;
62848;SDS011;48941;49.516;8.286;2022-09-25T02:19:14;4.35;;;3.95;;
62848;SDS011;48941;49.516;8.286;2022-09-25T02:22:02;4.57;;;3.72;;
62848;SDS011;48941;49.516;8.286;2022-09-25T02:24:34;4.63;;;3.65;;
62848;SDS011;48941;49.516;8.286;2022-09-25T02:27:09;7.05;;;3.90;;
62848;SDS011;48941;49.516;8.286;2022-09-25T02:29:37;6.00;;;3.83;;
62848;SDS011;48941;49.516;8.286;2022-09-25T02:32:08;4.95;;;4.18;;
62848;SDS011;48941;49.516;8.286;2022-09-25T02:34:38;7.10;;;4.28;;
62848;SDS011;48941;49.516;8.286;2022-09-25T02:37:08;5.88;;;4.03;;
62848;SDS011;48941;49.516;8.286;2022-09-25T02:39:37;6.05;;;4.25;;
62848;SDS011;48941;49.516;8.286;2022-09-25T02:42:10;6.55;;;4.30;;
62848;SDS011;48941;49.516;8.286;2022-09-25T02:44:51;4.90;;;4.13;;
62848;SDS011;48941;49.516;8.286;2022-09-25T02:47:34;6.70;;;4.03;;
62848;SDS011;48941;49.516;8.286;2022-09-25T02:50:12;5.95;;;4.00;;
62848;SDS011;48941;49.516;8.286;2022-09-25T02:52:46;6.43;;;4.57;;
62848;SDS011;48941;49.516;8.286;2022-09-25T02:55:20;5.18;;;4.20;;
62848;SDS011;48941;49.516;8.286;2022-09-25T02:57:55;5.43;;;4.40;;
62848;SDS011;48941;49.516;8.286;2022-09-25T03:00:26;6.32;;;4.35;;
62848;SDS011;48941;49.516;8.286;2022-09-25T03:02:56;6.70;;;4.43;;
62848;SDS011;48941;49.516;8.286;2022-09-25T03:05:26;6.18;;;4.60;;
62848;SDS011;48941;49.516;8.286;2022-09-25T03:07:53;5.00;;;4.15;;
62848;SDS011;48941;49.516;8.286;2022-09-25T03:10:39;5.60;;;4.50;;
62848;SDS011;48941;49.516;8.286;2022-09-25T03:13:12;5.47;;;4.50;;
62848;SDS011;48941;49.516;8.286;2022-09-25T03:15:40;6.47;;;4.38;;
62848;SDS011;48941;49.516;8.286;2022-09-25T03:18:26;6.85;;;4.65;;
62848;SDS011;48941;49.516;8.286;2022-09-25T03:20:56;7.13;;;5.18;;
62848;SDS011;48941;49.516;8.286;2022-09-25T03:23:24;6.57;;;4.65;;
62848;SDS011;48941;49.516;8.286;2022-09-25T03:25:52;5.30;;;4.65;;
62848;SDS011;48941;49.516;8.286;2022-09-25T03:28:21;5.32;;;4.15;;
62848;SDS011;48941;49.516;8.286;2022-09-25T03:30:56;5.07;;;3.67;;
62848;SDS011;48941;49.516;8.286;2022-09-25T03:33:27;4.05;;;3.28;;
62848;SDS011;48941;49.516;8.286;2022-09-25T03:36:03;3.83;;;3.30;;
62848;SDS011;48941;49.516;8.286;2022-09-25T03:38:33;4.05;;;3.10;;
62848;SDS011;48941;49.516;8.286;2022-09-25T03:41:01;4.07;;;2.83;;
62848;SDS011;48941;49.516;8.286;2022-09-25T03:43:30;5.32;;;3.40;;
62848;SDS011;48941;49.516;8.286;2022-09-25T03:46:13;3.33;;;3.00;;
62848;SDS011;48941;49.516;8.286;2022-09-25T03:48:42;4.97;;;3.00;;
62848;SDS011;48941;49.516;8.286;2022-09-25T03:51:10;3.85;;;3.05;;
62848;SDS011;48941;49.516;8.286;2022-09-25T03:53:38;4.95;;;3.38;;
62848;SDS011;48941;49.516;8.286;2022-09-25T03:56:07;4.82;;;3.30;;
62848;SDS011;48941;49.516;8.286;2022-09-25T03:58:37;5.90;;;3.22;;
62848;SDS011;48941;49.516;8.286;2022-09-25T04:01:05;5.38;;;3.20;;
62848;SDS011;48941;49.516;8.286;2022-09-25T04:03:33;3.38;;;3.08;;
62848;SDS011;48941;49.516;8.286;2022-09-25T04:06:03;4.20;;;3.50;;
62848;SDS011;48941;49.516;8.286;2022-09-25T04:08:33;3.72;;;3.00;;
62848;SDS011;48941;49.516;8.286;2022-09-25T04:11:02;5.53;;;3.40;;
62848;SDS011;48941;49.516;8.286;2022-09-25T04:13:38;5.47;;;3.40;;
62848;SDS011;48941;49.516;8.286;2022-09-25T04:16:07;3.60;;;3.13;;
62848;SDS011;48941;49.516;8.286;2022-09-25T04:18:47;5.93;;;3.10;;
62848;SDS011;48941;49.516;8.286;2022-09-25T04:21:17;4.72;;;3.15;;
62848;SDS011;48941;49.516;8.286;2022-09-25T04:23:45;3.83;;;3.10;;
62848;SDS011;48941;49.516;8.286;2022-09-25T04:26:33;3.10;;;2.70;;
62848;SDS011;48941;49.516;8.286;2022-09-25T04:29:02;3.95;;;2.80;;
62848;SDS011;48941;49.516;8.286;2022-09-25T04:31:30;4.00;;;3.00;;
62848;SDS011;48941;49.516;8.286;2022-09-25T04:33:59;3.92;;;2.83;;
62848;SDS011;48941;49.516;8.286;2022-09-25T04:36:38;4.88;;;2.45;;
62848;SDS011;48941;49.516;8.286;2022-09-25T04:39:06;3.28;;;2.50;;
62848;SDS011;48941;49.516;8.286;2022-09-25T04:41:34;3.40;;;2.30;;
62848;SDS011;48941;49.516;8.286;2022-09-25T04:44:03;2.55;;;2.20;;
62848;SDS011;48941;49.516;8.286;2022-09-25T04:46:31;2.90;;;2.33;;
62848;SDS011;48941;49.516;8.286;2022-09-25T04:48:58;2.80;;;2.60;;
62848;SDS011;48941;49.516;8.286;2022-09-25T04:51:26;6.10;;;2.15;;
62848;SDS011;48941;49.516;8.286;2022-09-25T04:53:56;2.38;;;2.17;;
62848;SDS011;48941;49.516;8.286;2022-09-25T04:56:25;3.33;;;2.55;;
62848;SDS011;48941;49.516;8.286;2022-09-25T04:58:52;2.45;;;2.25;;
62848;SDS011;48941;49.516;8.286;2022-09-25T05:01:20;2.58;;;2.38;;
62848;SDS011;48941;49.516;8.286;2022-09-25T05:03:48;2.67;;;2.47;;
62848;SDS011;48941;49.516;8.286;2022-09-25T05:06:19;3.60;;;2.53;;
62848;SDS011;48941;49.516;8.286;2022-09-25T05:08:59;2.42;;;2.22;;
62848;SDS011;48941;49.516;8.286;2022-09-25T05:11:28;3.38;;;2.42;;
62848;SDS011;48941;49.516;8.286;2022-09-25T05:13:56;2.45;;;2.20;;
62848;SDS011;48941;49.516;8.286;2022-09-25T05:16:24;2.90;;;2.40;;
62848;SDS011;48941;49.516;8.286;2022-09-25T05:18:54;3.97;;;2.28;;
62848;SDS011;48941;49.516;8.286;2022-09-25T05:21:21;3.38;;;2.40;;
62848;SDS011;48941;49.516;8.286;2022-09-25T05:23:49;2.78;;;2.35;;
62848;SDS011;48941;49.516;8.286;2022-09-25T05:26:18;3.03;;;2.45;;
62848;SDS011;48941;49.516;8.286;2022-09-25T05:28:47;2.58;;;2.38;;
62848;SDS011;48941;49.516;8.286;2022-09-25T05:31:17;2.78;;;2.35;;
62848;SDS011;48941;49.516;8.286;2022-09-25T05:33:45;3.40;;;2.70;;
62848;SDS011;48941;49.516;8.286;2022-09-25T05:36:21;2.60;;;2.40;;
62848;SDS011;48941;49.516;8.286;2022-09-25T05:38:49;4.00;;;2.70;;
62848;SDS011;48941;49.516;8.286;2022-09-25T05:41:18;3.08;;;2.72;;
62848;SDS011;48941;49.516;8.286;2022-09-25T05:43:46;3.70;;;2.80;;
62848;SDS011;48941;49.516;8.286;2022-09-25T05:46:15;2.63;;;2.35;;
62848;SDS011;48941;49.516;8.286;2022-09-25T05:48:43;4.43;;;2.58;;
62848;SDS011;48941;49.516;8.286;2022-09-25T05:51:11;3.13;;;2.40;;
62848;SDS011;48941;49.516;8.286;2022-09-25T05:53:38;3.22;;;2.60;;
62848;SDS011;48941;49.516;8.286;2022-09-25T05:56:06;3.25;;;2.67;;
62848;SDS011;48941;49.516;8.286;2022-09-25T05:58:35;2.80;;;2.55;;
62848;SDS011;48941;49.516;8.286;2022-09-25T06:01:04;2.90;;;2.60;;
62848;SDS011;48941;49.516;8.286;2022-09-25T06:03:32;3.38;;;2.58;;
62848;SDS011;48941;49.516;8.286;2022-09-25T06:06:01;3.85;;;2.75;;
62848;SDS011;48941;49.516;8.286;2022-09-25T06:08:29;5.00;;;3.00;;
62848;SDS011;48941;49.516;8.286;2022-09-25T06:10:58;3.03;;;2.72;;
62848;SDS011;48941;49.516;8.286;2022-09-25T06:13:28;3.17;;;2.65;;
62848;SDS011;48941;49.516;8.286;2022-09-25T06:16:10;3.17;;;2.75;;
62848;SDS011;48941;49.516;8.286;2022-09-25T06:18:40;3.20;;;2.90;;
62848;SDS011;48941;49.516;8.286;2022-09-25T06:21:08;3.47;;;3.05;;
62848;SDS011;48941;49.516;8.286;2022-09-25T06:23:36;3.10;;;2.80;;
62848;SDS011;48941;49.516;8.286;2022-09-25T06:26:04;4.57;;;2.95;;
62848;SDS011;48941;49.516;8.286;2022-09-25T06:28:34;4.15;;;3.00;;
62848;SDS011;48941;49.516;8.286;2022-09-25T06:31:02;3.65;;;3.20;;
62848;SDS011;48941;49.516;8.286;2022-09-25T06:33:32;3.90;;;3.10;;
62848;SDS011;48941;49.516;8.286;2022-09-25T06:36:12;3.75;;;2.97;;
62848;SDS011;48941;49.516;8.286;2022-09-25T06:38:40;4.22;;;3.40;;
62848;SDS011;48941;49.516;8.286;2022-09-25T06:41:07;4.53;;;3.10;;
62848;SDS011;48941;49.516;8.286;2022-09-25T06:43:35;3.80;;;3.30;;
62848;SDS011;48941;49.516;8.286;2022-09-25T06:46:03;5.78;;;4.00;;
62848;SDS011;48941;49.516;8.286;2022-09-25T06:48:31;3.38;;;3.08;;
62848;SDS011;48941;49.516;8.286;2022-09-25T06:51:03;4.38;;;3.63;;
62848;SDS011;48941;49.516;8.286;2022-09-25T06:53:33;4.65;;;3.20;;
62848;SDS011;48941;49.516;8.286;2022-09-25T06:56:01;3.88;;;3.45;;
62848;SDS011;48941;49.516;8.286;2022-09-25T06:58:32;3.80;;;3.25;;
62848;SDS011;48941;49.516;8.286;2022-09-25T07:01:01;4.05;;;3.30;;
62848;SDS011;48941;49.516;8.286;2022-09-25T07:03:34;3.95;;;3.22;;
62848;SDS011;48941;49.516;8.286;2022-09-25T07:06:12;3.50;;;3.13;;
62848;SDS011;48941;49.516;8.286;2022-09-25T07:08:46;3.80;;;3.20;;
62848;SDS011;48941;49.516;8.286;2022-09-25T07:11:15;3.45;;;3.15;;
62848;SDS011;48941;49.516;8.286;2022-09-25T07:13:44;3.58;;;3.10;;
62848;SDS011;48941;49.516;8.286;2022-09-25T07:16:12;4.75;;;3.53;;
62848;SDS011;48941;49.516;8.286;2022-09-25T07:18:56;3.65;;;3.08;;
62848;SDS011;48941;49.516;8.286;2022-09-25T07:21:26;3.53;;;2.97;;
62848;SDS011;48941;49.516;8.286;2022-09-25T07:26:35;5.13;;;3.20;;
62848;SDS011;48941;49.516;8.286;2022-09-25T07:29:08;4.45;;;3.15;;
62848;SDS011;48941;49.516;8.286;2022-09-25T07:31:36;3.50;;;3.10;;
62848;SDS011;48941;49.516;8.286;2022-09-25T07:34:04;5.50;;;3.25;;
62848;SDS011;48941;49.516;8.286;2022-09-25T07:36:48;3.95;;;3.15;;
62848;SDS011;48941;49.516;8.286;2022-09-25T07:39:18;5.07;;;3.72;;
62848;SDS011;48941;49.516;8.286;2022-09-25T07:41:47;5.88;;;4.00;;
62848;SDS011;48941;49.516;8.286;2022-09-25T07:44:15;5.07;;;3.72;;
62848;SDS011;48941;49.516;8.286;2022-09-25T07:46:55;3.90;;;3.42;;
62848;SDS011;48941;49.516;8.286;2022-09-25T07:49:23;5.13;;;3.60;;
62848;SDS011;48941;49.516;8.286;2022-09-25T07:51:51;7.22;;;3.97;;
62848;SDS011;48941;49.516;8.286;2022-09-25T07:54:19;4.40;;;3.42;;
62848;SDS011;48941;49.516;8.286;2022-09-25T07:57:00;4.40;;;3.83;;
62848;SDS011;48941;49.516;8.286;2022-09-25T07:59:42;4.40;;;3.35;;
62848;SDS011;48941;49.516;8.286;2022-09-25T08:02:11;4.45;;;3.67;;
62848;SDS011;48941;49.516;8.286;2022-09-25T08:04:38;4.82;;;3.75;;
62848;SDS011;48941;49.516;8.286;2022-09-25T08:07:06;5.15;;;4.10;;
62848;SDS011;48941;49.516;8.286;2022-09-25T08:09:34;5.63;;;3.95;;
62848;SDS011;48941;49.516;8.286;2022-09-25T08:12:03;5.88;;;4.00;;
62848;SDS011;48941;49.516;8.286;2022-09-25T08:14:31;4.20;;;3.75;;
62848;SDS011;48941;49.516;8.286;2022-09-25T08:16:59;4.28;;;3.85;;
62848;SDS011;48941;49.516;8.286;2022-09-25T08:19:35;4.72;;;4.18;;
62848;SDS011;48941;49.516;8.286;2022-09-25T08:22:02;4.60;;;3.92;;
62848;SDS011;48941;49.516;8.286;2022-09-25T08:24:30;5.50;;;4.40;;
62848;SDS011;48941;49.516;8.286;2022-09-25T08:27:08;6.03;;;4.55;;
62848;SDS011;48941;49.516;8.286;2022-09-25T08:29:35;4.95;;;4.25;;
62848;SDS011;48941;49.516;8.286;2022-09-25T08:32:03;6.72;;;4.90;;
62848;SDS011;48941;49.516;8.286;2022-09-25T08:34:31;6.93;;;5.43;;
62848;SDS011;48941;49.516;8.286;2022-09-25T08:37:07;11.45;;;6.70;;
62848;SDS011;48941;49.516;8.286;2022-09-25T08:39:35;11.02;;;8.07;;
62848;SDS011;48941;49.516;8.286;2022-09-25T08:42:03;13.43;;;8.20;;
62848;SDS011;48941;49.516;8.286;2022-09-25T08:47:14;8.98;;;6.75;;
62848;SDS011;48941;49.516;8.286;2022-09-25T08:52:35;11.13;;;7.75;;
62848;SDS011;48941;49.516;8.286;2022-09-25T08:55:18;9.93;;;7.57;;
62848;SDS011;48941;49.516;8.286;2022-09-25T08:58:11;7.43;;;6.20;;
62848;SDS011;48941;49.516;8.286;2022-09-25T09:00:45;7.95;;;5.72;;
62848;SDS011;48941;49.516;8.286;2022-09-25T09:03:14;7.53;;;5.90;;
62848;SDS011;48941;49.516;8.286;2022-09-25T09:05:47;8.48;;;6.43;;
62848;SDS011;48941;49.516;8.286;2022-09-25T09:08:19;8.27;;;6.32;;
62848;SDS011;48941;49.516;8.286;2022-09-25T09:10:52;8.65;;;6.35;;
62848;SDS011;48941;49.516;8.286;2022-09-25T09:13:24;7.20;;;6.18;;
62848;SDS011;48941;49.516;8.286;2022-09-25T09:18:31;7.32;;;6.15;;
62848;SDS011;48941;49.516;8.286;2022-09-25T09:21:20;11.18;;;6.28;;
62848;SDS011;48941;49.516;8.286;2022-09-25T09:24:01;8.95;;;5.80;;
62848;SDS011;48941;49.516;8.286;2022-09-25T09:29:54;7.10;;;5.32;;
62848;SDS011;48941;49.516;8.286;2022-09-25T09:32:47;7.47;;;5.70;;
62848;SDS011;48941;49.516;8.286;2022-09-25T09:35:29;9.25;;;5.70;;
62848;SDS011;48941;49.516;8.286;2022-09-25T09:38:14;6.88;;;5.63;;
62848;SDS011;48941;49.516;8.286;2022-09-25T09:40:53;8.90;;;6.53;;
62848;SDS011;48941;49.516;8.286;2022-09-25T09:43:33;7.75;;;6.22;;
62848;SDS011;48941;49.516;8.286;2022-09-25T09:46:12;7.50;;;5.80;;
62848;SDS011;48941;49.516;8.286;2022-09-25T09:49:04;10.77;;;6.60;;
62848;SDS011;48941;49.516;8.286;2022-09-25T09:51:39;11.57;;;6.88;;
62848;SDS011;48941;49.516;8.286;2022-09-25T09:54:21;9.52;;;7.32;;
62848;SDS011;48941;49.516;8.286;2022-09-25T09:56:55;9.18;;;6.78;;
62848;SDS011;48941;49.516;8.286;2022-09-25T09:59:40;11.53;;;8.00;;
62848;SDS011;48941;49.516;8.286;2022-09-25T10:02:23;14.23;;;8.63;;
62848;SDS011;48941;49.516;8.286;2022-09-25T10:04:57;12.55;;;8.40;;
62848;SDS011;48941;49.516;8.286;2022-09-25T10:07:27;12.43;;;9.02;;
62848;SDS011;48941;49.516;8.286;2022-09-25T10:09:59;14.43;;;10.57;;
62848;SDS011;48941;49.516;8.286;2022-09-25T10:12:28;16.73;;;11.18;;
62848;SDS011;48941;49.516;8.286;2022-09-25T10:14:58;16.85;;;12.43;;
62848;SDS011;48941;49.516;8.286;2022-09-25T10:17:33;20.05;;;12.70;;
62848;SDS011;48941;49.516;8.286;2022-09-25T10:20:03;17.02;;;12.38;;
62848;SDS011;48941;49.516;8.286;2022-09-25T10:22:41;19.45;;;12.80;;
62848;SDS011;48941;49.516;8.286;2022-09-25T10:28:24;14.55;;;10.52;;
62848;SDS011;48941;49.516;8.286;2022-09-25T10:30:53;15.43;;;10.02;;
62848;SDS011;48941;49.516;8.286;2022-09-25T10:33:23;13.15;;;9.40;;
62848;SDS011;48941;49.516;8.286;2022-09-25T10:36:01;11.98;;;9.68;;
62848;SDS011;48941;49.516;8.286;2022-09-25T10:38:36;13.10;;;10.00;;
62848;SDS011;48941;49.516;8.286;2022-09-25T10:41:08;10.73;;;9.05;;
62848;SDS011;48941;49.516;8.286;2022-09-25T10:43:50;12.45;;;9.35;;
62848;SDS011;48941;49.516;8.286;2022-09-25T10:46:26;11.90;;;9.05;;
62848;SDS011;48941;49.516;8.286;2022-09-25T10:49:14;16.65;;;10.00;;
62848;SDS011;48941;49.516;8.286;2022-09-25T10:52:02;13.43;;;10.25;;
62848;SDS011;48941;49.516;8.286;2022-09-25T10:54:31;12.90;;;10.20;;
62848;SDS011;48941;49.516;8.286;2022-09-25T10:57:12;14.80;;;11.57;;
62848;SDS011;48941;49.516;8.286;2022-09-25T10:59:47;16.15;;;11.38;;
62848;SDS011;48941;49.516;8.286;2022-09-25T11:02:34;16.73;;;11.40;;
62848;SDS011;48941;49.516;8.286;2022-09-25T11:05:06;17.60;;;12.23;;
62848;SDS011;48941;49.516;8.286;2022-09-25T11:07:45;18.05;;;11.25;;
62848;SDS011;48941;49.516;8.286;2022-09-25T11:10:21;15.15;;;11.40;;
62848;SDS011;48941;49.516;8.286;2022-09-25T11:12:52;17.73;;;11.93;;
62848;SDS011;48941;49.516;8.286;2022-09-25T11:15:22;14.95;;;10.63;;
62848;SDS011;48941;49.516;8.286;2022-09-25T11:17:54;12.98;;;10.13;;
62848;SDS011;48941;49.516;8.286;2022-09-25T11:20:25;21.65;;;10.88;;
62848;SDS011;48941;49.516;8.286;2022-09-25T11:23:04;15.60;;;10.87;;
62848;SDS011;48941;49.516;8.286;2022-09-25T11:25:43;14.63;;;10.73;;
62848;SDS011;48941;49.516;8.286;2022-09-25T11:28:25;15.68;;;10.77;;
62848;SDS011;48941;49.516;8.286;2022-09-25T11:30:57;15.00;;;10.85;;
62848;SDS011;48941;49.516;8.286;2022-09-25T11:33:31;16.52;;;10.95;;
62848;SDS011;48941;49.516;8.286;2022-09-25T11:36:09;12.27;;;9.48;;
62848;SDS011;48941;49.516;8.286;2022-09-25T11:38:45;13.82;;;10.60;;
62848;SDS011;48941;49.516;8.286;2022-09-25T11:41:32;14.13;;;10.32;;
62848;SDS011;48941;49.516;8.286;2022-09-25T11:44:09;17.42;;;11.07;;
62848;SDS011;48941;49.516;8.286;2022-09-25T11:46:47;21.08;;;10.90;;
62848;SDS011;48941;49.516;8.286;2022-09-25T11:49:25;15.20;;;10.50;;
62848;SDS011;48941;49.516;8.286;2022-09-25T11:55:02;13.98;;;10.57;;
62848;SDS011;48941;49.516;8.286;2022-09-25T11:57:43;15.90;;;11.60;;
62848;SDS011;48941;49.516;8.286;2022-09-25T12:03:33;14.18;;;10.55;;
62848;SDS011;48941;49.516;8.286;2022-09-25T12:06:23;14.40;;;10.50;;
62848;SDS011;48941;49.516;8.286;2022-09-25T12:09:03;14.48;;;10.93;;
62848;SDS011;48941;49.516;8.286;2022-09-25T12:11:55;15.38;;;10.48;;
62848;SDS011;48941;49.516;8.286;2022-09-25T12:14:29;14.15;;;10.00;;
62848;SDS011;48941;49.516;8.286;2022-09-25T12:20:00;12.82;;;9.40;;
62848;SDS011;48941;49.516;8.286;2022-09-25T12:22:40;12.88;;;9.95;;
62848;SDS011;48941;49.516;8.286;2022-09-25T12:25:27;12.48;;;10.20;;
62848;SDS011;48941;49.516;8.286;2022-09-25T12:28:26;15.55;;;11.30;;
62848;SDS011;48941;49.516;8.286;2022-09-25T12:31:10;15.38;;;11.05;;
62848;SDS011;48941;49.516;8.286;2022-09-25T12:33:53;13.07;;;10.02;;
62848;SDS011;48941;49.516;8.286;2022-09-25T12:36:27;13.80;;;10.75;;
62848;SDS011;48941;49.516;8.286;2022-09-25T12:39:02;13.45;;;9.98;;
62848;SDS011;48941;49.516;8.286;2022-09-25T12:41:50;14.13;;;10.50;;
62848;SDS011;48941;49.516;8.286;2022-09-25T12:44:22;15.15;;;10.68;;
62848;SDS011;48941;49.516;8.286;2022-09-25T12:47:04;16.27;;;10.50;;
62848;SDS011;48941;49.516;8.286;2022-09-25T12:49:38;12.25;;;9.70;;
62848;SDS011;48941;49.516;8.286;2022-09-25T12:52:08;13.05;;;10.07;;
62848;SDS011;48941;49.516;8.286;2022-09-25T12:54:41;13.93;;;10.43;;
62848;SDS011;48941;49.516;8.286;2022-09-25T12:57:30;13.23;;;9.88;;
62848;SDS011;48941;49.516;8.286;2022-09-25T13:00:04;14.88;;;10.35;;
62848;SDS011;48941;49.516;8.286;2022-09-25T13:02:36;12.15;;;10.05;;
62848;SDS011;48941;49.516;8.286;2022-09-25T13:05:12;16.67;;;10.13;;
62848;SDS011;48941;49.516;8.286;2022-09-25T13:07:48;13.32;;;9.32;;
62848;SDS011;48941;49.516;8.286;2022-09-25T13:10:23;12.65;;;10.00;;
62848;SDS011;48941;49.516;8.286;2022-09-25T13:13:08;15.57;;;9.43;;
62848;SDS011;48941;49.516;8.286;2022-09-25T13:15:46;12.65;;;9.10;;
62848;SDS011;48941;49.516;8.286;2022-09-25T13:18:29;12.60;;;8.95;;
62848;SDS011;48941;49.516;8.286;2022-09-25T13:21:02;11.45;;;8.70;;
62848;SDS011;48941;49.516;8.286;2022-09-25T13:23:52;11.23;;;8.93;;
62848;SDS011;48941;49.516;8.286;2022-09-25T13:26:22;15.25;;;8.73;;
62848;SDS011;48941;49.516;8.286;2022-09-25T13:28:54;11.80;;;8.80;;
62848;SDS011;48941;49.516;8.286;2022-09-25T13:31:28;10.68;;;7.40;;
62848;SDS011;48941;49.516;8.286;2022-09-25T13:34:01;9.32;;;7.05;;
62848;SDS011;48941;49.516;8.286;2022-09-25T13:39:21;7.78;;;6.03;;
62848;SDS011;48941;49.516;8.286;2022-09-25T13:42:13;13.15;;;6.22;;
62848;SDS011;48941;49.516;8.286;2022-09-25T13:44:48;5.80;;;4.80;;
62848;SDS011;48941;49.516;8.286;2022-09-25T13:47:32;7.90;;;4.82;;
62848;SDS011;48941;49.516;8.286;2022-09-25T13:50:17;7.65;;;4.72;;
62848;SDS011;48941;49.516;8.286;2022-09-25T13:52:51;7.15;;;4.10;;
62848;SDS011;48941;49.516;8.286;2022-09-25T13:59:00;5.43;;;3.60;;
62848;SDS011;48941;49.516;8.286;2022-09-25T14:01:52;6.43;;;2.90;;
62848;SDS011;48941;49.516;8.286;2022-09-25T14:04:36;5.95;;;3.05;;
62848;SDS011;48941;49.516;8.286;2022-09-25T14:07:17;5.00;;;3.13;;
62848;SDS011;48941;49.516;8.286;2022-09-25T14:09:52;4.82;;;2.47;;
62848;SDS011;48941;49.516;8.286;2022-09-25T14:12:26;4.32;;;2.58;;
62848;SDS011;48941;49.516;8.286;2022-09-25T14:15:04;3.88;;;2.72;;
62848;SDS011;48941;49.516;8.286;2022-09-25T14:17:34;8.63;;;2.92;;
62848;SDS011;48941;49.516;8.286;2022-09-25T14:20:04;3.42;;;2.88;;
62848;SDS011;48941;49.516;8.286;2022-09-25T14:22:38;6.78;;;3.10;;
62848;SDS011;48941;49.516;8.286;2022-09-25T14:25:28;4.63;;;3.03;;
62848;SDS011;48941;49.516;8.286;2022-09-25T14:28:03;4.75;;;3.42;;
62848;SDS011;48941;49.516;8.286;2022-09-25T14:30:46;4.70;;;3.20;;
62848;SDS011;48941;49.516;8.286;2022-09-25T14:33:24;5.38;;;3.35;;
62848;SDS011;48941;49.516;8.286;2022-09-25T14:36:09;5.03;;;3.13;;
62848;SDS011;48941;49.516;8.286;2022-09-25T14:44:56;7.25;;;4.22;;
62848;SDS011;48941;49.516;8.286;2022-09-25T14:47:35;3.95;;;2.97;;
62848;SDS011;48941;49.516;8.286;2022-09-25T14:50:09;3.42;;;2.70;;
62848;SDS011;48941;49.516;8.286;2022-09-25T14:53:01;2.03;;;1.92;;
62848;SDS011;48941;49.516;8.286;2022-09-25T14:55:34;2.20;;;1.95;;
62848;SDS011;48941;49.516;8.286;2022-09-25T14:58:05;2.63;;;2.00;;
62848;SDS011;48941;49.516;8.286;2022-09-25T15:00:44;2.15;;;1.92;;
62848;SDS011;48941;49.516;8.286;2022-09-25T15:03:15;2.20;;;2.00;;
62848;SDS011;48941;49.516;8.286;2022-09-25T15:05:45;2.92;;;2.10;;
62848;SDS011;48941;49.516;8.286;2022-09-25T15:08:18;4.50;;;2.60;;
62848;SDS011;48941;49.516;8.286;2022-09-25T15:10:59;3.72;;;2.30;;
62848;SDS011;48941;49.516;8.286;2022-09-25T15:13:28;2.30;;;2.10;;
62848;SDS011;48941;49.516;8.286;2022-09-25T15:16:05;2.72;;;2.20;;
62848;SDS011;48941;49.516;8.286;2022-09-25T15:21:34;3.47;;;2.30;;
62848;SDS011;48941;49.516;8.286;2022-09-25T15:24:03;3.38;;;2.40;;
62848;SDS011;48941;49.516;8.286;2022-09-25T15:26:39;2.95;;;2.22;;
62848;SDS011;48941;49.516;8.286;2022-09-25T15:29:13;2.20;;;2.00;;
62848;SDS011;48941;49.516;8.286;2022-09-25T15:31:46;3.75;;;2.30;;
62848;SDS011;48941;49.516;8.286;2022-09-25T15:34:19;2.47;;;2.03;;
62848;SDS011;48941;49.516;8.286;2022-09-25T15:37:25;3.30;;;2.10;;
62848;SDS011;48941;49.516;8.286;2022-09-25T15:39:54;4.57;;;2.83;;
62848;SDS011;48941;49.516;8.286;2022-09-25T15:42:27;4.05;;;2.55;;
62848;SDS011;48941;49.516;8.286;2022-09-25T15:44:57;6.07;;;2.53;;
62848;SDS011;48941;49.516;8.286;2022-09-25T15:47:46;3.90;;;2.53;;
62848;SDS011;48941;49.516;8.286;2022-09-25T15:50:19;3.13;;;2.05;;
62848;SDS011;48941;49.516;8.286;2022-09-25T15:52:52;4.20;;;2.20;;
62848;SDS011;48941;49.516;8.286;2022-09-25T15:55:22;4.43;;;2.20;;
62848;SDS011;48941;49.516;8.286;2022-09-25T15:57:51;10.07;;;2.50;;
62848;SDS011;48941;49.516;8.286;2022-09-25T16:00:35;3.65;;;2.40;;
62848;SDS011;48941;49.516;8.286;2022-09-25T16:03:21;2.70;;;2.38;;
62848;SDS011;48941;49.516;8.286;2022-09-25T16:06:11;4.78;;;2.85;;
62848;SDS011;48941;49.516;8.286;2022-09-25T16:11:49;5.03;;;2.58;;
62848;SDS011;48941;49.516;8.286;2022-09-25T16:14:18;4.35;;;2.45;;
62848;SDS011;48941;49.516;8.286;2022-09-25T16:16:54;5.35;;;2.75;;